createdAt,value
2022-10-01T00:02:14.706Z,19.01
2022-10-01T00:04:47.325Z,18.97
2022-10-01T00:07:16.196Z,18.96
2022-10-01T00:09:49.464Z,18.71
2022-10-01T00:12:22.109Z,18.84
2022-10-01T00:15:05.530Z,18.91
2022-10-01T00:17:45.893Z,19.00
2022-10-01T00:20:32.636Z,19.03
2022-10-01T00:23:31.916Z,19.00
2022-10-01T00:26:14.344Z,18.97
2022-10-01T00:28:48.279Z,18.87
2022-10-01T00:31:35.125Z,18.73
2022-10-01T00:34:09.709Z,18.80
2022-10-01T00:36:37.677Z,18.61
2022-10-01T00:39:12.124Z,18.65
2022-10-01T00:41:45.490Z,18.49
2022-10-01T00:44:42.278Z,18.49
2022-10-01T00:47:57.132Z,18.49
2022-10-01T00:50:33.465Z,18.53
2022-10-01T00:53:21.638Z,18.64
2022-10-01T00:55:57.173Z,18.59
2022-10-01T00:58:31.200Z,18.57
2022-10-01T01:01:02.435Z,18.65
2022-10-01T01:03:39.872Z,18.65
2022-10-01T01:06:15.269Z,18.69
2022-10-01T01:08:48.279Z,18.75
2022-10-01T01:11:37.580Z,18.65
2022-10-01T01:14:40.848Z,18.66
2022-10-01T01:17:34.102Z,18.63
2022-10-01T01:20:21.899Z,18.75
2022-10-01T01:23:03.279Z,18.82
2022-10-01T01:26:05.533Z,18.80
2022-10-01T01:29:00.794Z,18.82
2022-10-01T01:31:49.300Z,18.65
2022-10-01T01:34:24.471Z,18.70
2022-10-01T01:37:01.700Z,18.66
2022-10-01T01:39:35.394Z,18.58
2022-10-01T01:42:16.805Z,18.47
2022-10-01T01:44:49.111Z,18.49
2022-10-01T01:47:26.280Z,18.44
2022-10-01T01:50:01.179Z,18.38
2022-10-01T01:52:33.229Z,18.33
2022-10-01T01:55:10.311Z,18.22
2022-10-01T01:57:47.900Z,18.12
2022-10-01T02:00:25.193Z,17.97
2022-10-01T02:03:07.459Z,18.00
2022-10-01T02:06:18.442Z,18.00
2022-10-01T02:09:14.073Z,18.32
2022-10-01T02:12:19.373Z,18.30
2022-10-01T02:14:54.967Z,18.24
2022-10-01T02:17:34.748Z,18.10
2022-10-01T02:20:56.746Z,18.10
2022-10-01T02:23:31.677Z,18.06
2022-10-01T02:26:09.712Z,18.11
2022-10-01T02:28:43.698Z,18.31
2022-10-01T02:31:48.178Z,18.47
2022-10-01T02:34:21.195Z,18.52
2022-10-01T02:36:50.044Z,18.69
2022-10-01T02:39:27.066Z,18.80
2022-10-01T02:42:02.248Z,18.99
2022-10-01T02:44:40.283Z,19.07
2022-10-01T02:47:49.152Z,19.14
2022-10-01T02:50:24.153Z,19.21
2022-10-01T02:53:24.012Z,19.25
2022-10-01T02:55:54.885Z,19.40
2022-10-01T02:58:29.221Z,19.43
2022-10-01T03:00:56.554Z,19.49
2022-10-01T03:03:27.475Z,19.50
2022-10-01T03:05:56.998Z,19.59
2022-10-01T03:08:28.942Z,19.68
2022-10-01T03:11:02.040Z,19.75
2022-10-01T03:13:32.963Z,19.64
2022-10-01T03:16:01.926Z,19.65
2022-10-01T03:18:44.380Z,19.64
2022-10-01T03:21:20.261Z,19.57
2022-10-01T03:23:53.419Z,19.44
2022-10-01T03:26:24.677Z,19.49
2022-10-01T03:28:58.266Z,19.63
2022-10-01T03:31:26.563Z,19.51
2022-10-01T03:33:59.919Z,19.55
2022-10-01T03:36:34.863Z,19.63
2022-10-01T03:39:04.487Z,19.52
2022-10-01T03:41:35.613Z,19.53
2022-10-01T03:44:24.879Z,19.55
2022-10-01T03:46:58.684Z,19.42
2022-10-01T03:49:30.544Z,19.17
2022-10-01T03:52:09.180Z,19.28
2022-10-01T03:55:06.952Z,19.12
2022-10-01T03:57:42.027Z,19.12
2022-10-01T04:00:11.539Z,18.94
2022-10-01T04:02:44.863Z,18.78
2022-10-01T04:05:15.250Z,18.73
2022-10-01T04:07:47.379Z,18.68
2022-10-01T04:10:23.725Z,18.52
2022-10-01T04:13:17.187Z,18.38
2022-10-01T04:15:52.010Z,18.18
2022-10-01T04:18:34.249Z,18.06
2022-10-01T04:21:14.505Z,18.03
2022-10-01T04:23:49.295Z,18.01
2022-10-01T04:26:21.061Z,17.83
2022-10-01T04:28:56.401Z,17.80
2022-10-01T04:31:35.038Z,17.61
2022-10-01T04:34:12.036Z,17.61
2022-10-01T04:36:43.933Z,17.47
2022-10-01T04:39:41.242Z,17.41
2022-10-01T04:42:14.904Z,17.37
2022-10-01T04:44:49.076Z,17.50
2022-10-01T04:47:27.232Z,17.53
2022-10-01T04:50:16.647Z,17.51
2022-10-01T04:52:58.265Z,17.55
2022-10-01T04:55:32.038Z,17.51
2022-10-01T04:57:59.691Z,17.38
2022-10-01T05:00:38.949Z,17.29
2022-10-01T05:03:13.776Z,17.29
2022-10-01T05:05:47.471Z,17.35
2022-10-01T05:08:25.835Z,17.38
2022-10-01T05:11:05.026Z,17.34
2022-10-01T05:13:35.646Z,17.44
2022-10-01T05:16:28.279Z,17.48
2022-10-01T05:18:59.043Z,17.62
2022-10-01T05:21:28.961Z,17.65
2022-10-01T05:23:59.729Z,17.99
2022-10-01T05:26:33.438Z,18.16
2022-10-01T05:29:06.455Z,18.45
2022-10-01T05:35:16.302Z,19.68
2022-10-01T05:37:54.923Z,19.41
2022-10-01T05:40:32.196Z,19.36
2022-10-01T05:48:21.043Z,19.74
2022-10-01T06:01:54.920Z,20.17
2022-10-01T06:05:20.480Z,19.50
2022-10-01T06:08:21.426Z,19.43
2022-10-01T06:10:53.455Z,19.26
2022-10-01T06:13:53.427Z,19.00
2022-10-01T06:16:22.429Z,18.91
2022-10-01T06:18:57.495Z,18.92
2022-10-01T06:21:29.097Z,18.80
2022-10-01T06:24:01.659Z,18.74
2022-10-01T06:26:33.547Z,18.66
2022-10-01T06:29:05.258Z,18.55
2022-10-01T06:31:44.157Z,18.62
2022-10-01T06:34:19.132Z,18.72
2022-10-01T06:36:46.983Z,18.72
2022-10-01T06:39:18.377Z,18.71
2022-10-01T06:41:48.599Z,18.68
2022-10-01T06:44:16.259Z,18.72
2022-10-01T06:46:43.611Z,18.92
2022-10-01T06:49:10.970Z,18.97
2022-10-01T06:51:57.030Z,19.04
2022-10-01T06:54:27.408Z,18.99
2022-10-01T06:56:55.332Z,18.99
2022-10-01T06:59:24.194Z,19.06
2022-10-01T07:01:56.877Z,19.16
2022-10-01T07:04:29.664Z,19.21
2022-10-01T07:07:26.014Z,19.24
2022-10-01T07:10:13.441Z,19.31
2022-10-01T07:12:44.526Z,19.29
2022-10-01T07:15:13.013Z,19.37
2022-10-01T07:17:51.043Z,19.23
2022-10-01T07:20:25.825Z,19.30
2022-10-01T07:23:00.923Z,19.47
2022-10-01T07:25:29.743Z,19.58
2022-10-01T07:28:04.652Z,19.80
2022-10-01T07:30:35.344Z,19.94
2022-10-01T07:33:10.433Z,20.13
2022-10-01T07:35:41.552Z,20.38
2022-10-01T07:38:35.364Z,20.55
2022-10-01T07:41:06.534Z,20.63
2022-10-01T07:43:36.359Z,21.07
2022-10-01T07:46:10.680Z,21.12
2022-10-01T07:48:39.620Z,21.15
2022-10-01T07:51:08.421Z,20.81
2022-10-01T07:53:37.210Z,20.94
2022-10-01T07:56:32.758Z,21.07
2022-10-01T07:59:04.680Z,21.00
2022-10-01T08:01:35.717Z,21.22
2022-10-01T08:04:27.221Z,21.09
2022-10-01T08:07:21.367Z,21.32
2022-10-01T08:09:50.624Z,21.29
2022-10-01T08:12:19.779Z,21.33
2022-10-01T08:14:50.331Z,21.28
2022-10-01T08:17:20.557Z,21.32
2022-10-01T08:19:48.156Z,21.11
2022-10-01T08:22:24.883Z,21.23
2022-10-01T08:24:53.436Z,21.28
2022-10-01T08:27:21.266Z,21.22
2022-10-01T08:29:49.266Z,21.28
2022-10-01T08:32:17.566Z,21.32
2022-10-01T08:34:50.450Z,21.27
2022-10-01T08:37:27.317Z,21.35
2022-10-01T08:39:56.062Z,21.27
2022-10-01T08:42:37.981Z,21.20
2022-10-01T08:45:16.372Z,21.25
2022-10-01T08:47:58.576Z,21.17
2022-10-01T08:50:37.146Z,21.34
2022-10-01T08:53:14.003Z,21.19
2022-10-01T08:55:42.275Z,21.28
2022-10-01T08:58:15.009Z,21.23
2022-10-01T09:00:46.488Z,21.40
2022-10-01T09:03:15.528Z,21.35
2022-10-01T09:06:16.869Z,21.32
2022-10-01T09:09:21.657Z,21.18
2022-10-01T09:12:09.373Z,20.96
2022-10-01T09:15:30.597Z,20.94
2022-10-01T09:18:25.487Z,20.81
2022-10-01T09:20:57.723Z,20.78
2022-10-01T09:23:33.454Z,20.79
2022-10-01T09:26:02.632Z,20.82
2022-10-01T09:28:32.313Z,20.89
2022-10-01T09:31:18.501Z,20.94
2022-10-01T09:34:09.349Z,20.79
2022-10-01T09:36:56.843Z,20.75
2022-10-01T09:39:34.971Z,20.82
2022-10-01T09:42:02.552Z,20.79
2022-10-01T09:44:32.583Z,20.78
2022-10-01T09:47:01.224Z,20.71
2022-10-01T09:49:40.135Z,20.77
2022-10-01T09:52:27.255Z,20.83
2022-10-01T09:55:06.638Z,20.91
2022-10-01T09:57:39.273Z,21.04
2022-10-01T10:00:18.132Z,21.24
2022-10-01T10:02:50.213Z,21.16
2022-10-01T10:05:20.770Z,21.19
2022-10-01T10:08:10.443Z,21.10
2022-10-01T10:10:40.258Z,21.01
2022-10-01T10:13:14.823Z,21.09
2022-10-01T10:15:52.532Z,21.31
2022-10-01T10:18:31.770Z,21.60
2022-10-01T10:21:03.864Z,21.67
2022-10-01T10:23:31.799Z,21.65
2022-10-01T10:26:05.139Z,21.81
2022-10-01T10:28:44.856Z,21.97
2022-10-01T10:31:24.799Z,21.98
2022-10-01T10:34:08.433Z,22.07
2022-10-01T10:36:38.001Z,22.18
2022-10-01T10:39:32.660Z,22.52
2022-10-01T10:42:01.353Z,22.63
2022-10-01T10:44:36.295Z,22.79
2022-10-01T10:47:11.846Z,22.84
2022-10-01T10:49:57.786Z,22.92
2022-10-01T10:52:36.950Z,22.95
2022-10-01T10:55:29.593Z,23.14
2022-10-01T10:58:11.546Z,23.39
2022-10-01T11:00:50.171Z,23.70
2022-10-01T11:03:22.754Z,23.80
2022-10-01T11:05:53.417Z,23.80
2022-10-01T11:08:26.172Z,23.65
2022-10-01T11:11:14.934Z,23.71
2022-10-01T11:13:45.423Z,23.99
2022-10-01T11:16:48.620Z,23.83
2022-10-01T11:19:58.183Z,24.25
2022-10-01T11:22:48.078Z,24.28
2022-10-01T11:25:58.561Z,24.44
2022-10-01T11:28:46.273Z,24.50
2022-10-01T11:31:53.089Z,24.52
2022-10-01T11:34:57.334Z,24.45
2022-10-01T11:38:10.303Z,24.42
2022-10-01T11:40:43.954Z,24.21
2022-10-01T11:43:27.853Z,24.21
2022-10-01T11:46:07.269Z,24.20
2022-10-01T11:49:04.331Z,24.31
2022-10-01T11:51:58.837Z,24.25
2022-10-01T11:54:33.033Z,24.43
2022-10-01T11:57:23.766Z,24.62
2022-10-01T12:00:01.026Z,24.25
2022-10-01T12:02:38.965Z,24.44
2022-10-01T12:05:15.389Z,24.42
2022-10-01T12:07:54.117Z,24.25
2022-10-01T12:11:02.086Z,24.28
2022-10-01T12:13:38.769Z,24.05
2022-10-01T12:16:38.566Z,23.96
2022-10-01T12:19:12.941Z,24.21
2022-10-01T12:21:52.214Z,24.24
2022-10-01T12:24:42.615Z,24.07
2022-10-01T12:27:35.726Z,24.07
2022-10-01T12:30:21.640Z,24.18
2022-10-01T12:33:13.503Z,24.20
2022-10-01T12:36:05.636Z,24.07
2022-10-01T12:39:30.306Z,23.95
2022-10-01T12:42:50.185Z,24.07
2022-10-01T12:45:52.140Z,24.11
2022-10-01T13:43:55.868Z,25.71
2022-10-01T15:09:21.529Z,18.68
2022-10-01T15:16:44.778Z,18.03
2022-10-01T15:28:39.298Z,18.34
2022-10-01T15:31:18.497Z,18.39
2022-10-01T15:33:58.527Z,18.21
2022-10-01T15:40:36.705Z,17.83
2022-10-01T15:43:35.509Z,17.83
2022-10-01T15:56:32.219Z,17.66
2022-10-01T16:04:05.349Z,17.94
2022-10-01T16:06:47.949Z,17.92
2022-10-01T16:09:22.778Z,17.85
2022-10-01T16:12:03.940Z,17.87
2022-10-01T16:14:56.534Z,17.69
2022-10-01T16:17:33.975Z,17.59
2022-10-01T16:20:26.024Z,17.50
2022-10-01T16:23:34.087Z,17.52
2022-10-01T16:26:05.886Z,17.48
2022-10-01T16:28:38.258Z,17.54
2022-10-01T16:31:07.186Z,17.52
2022-10-01T16:33:35.194Z,17.61
2022-10-01T16:36:21.453Z,17.81
2022-10-01T16:38:55.033Z,17.77
2022-10-01T16:41:27.370Z,17.74
2022-10-01T16:44:03.384Z,17.71
2022-10-01T16:46:34.223Z,17.92
2022-10-01T16:49:11.791Z,18.05
2022-10-01T16:51:41.258Z,17.62
2022-10-01T16:54:40.626Z,18.00
2022-10-01T16:57:09.588Z,17.64
2022-10-01T16:59:41.893Z,17.63
2022-10-01T17:02:14.006Z,17.46
2022-10-01T17:04:49.232Z,17.42
2022-10-01T17:07:26.993Z,17.36
2022-10-01T17:09:58.543Z,17.51
2022-10-01T17:12:27.259Z,17.39
2022-10-01T17:14:57.073Z,17.63
2022-10-01T17:17:35.539Z,17.48
2022-10-01T17:20:09.808Z,17.41
2022-10-01T17:22:43.088Z,17.35
2022-10-01T17:25:23.180Z,17.39
2022-10-01T17:27:53.166Z,17.29
2022-10-01T17:30:24.929Z,17.19
2022-10-01T17:33:01.755Z,17.08
2022-10-01T17:35:36.534Z,16.94
2022-10-01T17:38:06.693Z,16.81
2022-10-01T17:41:02.678Z,16.79
2022-10-01T17:44:36.332Z,16.65
2022-10-01T17:48:31.303Z,16.67
2022-10-01T17:51:34.021Z,16.38
2022-10-01T17:59:20.751Z,16.40
2022-10-01T18:02:41.577Z,16.67
2022-10-01T18:06:05.531Z,16.71
2022-10-01T18:09:35.651Z,16.67
2022-10-01T18:12:49.861Z,16.56
2022-10-01T18:16:18.305Z,16.27
2022-10-01T18:26:05.365Z,16.44
2022-10-01T18:32:40.263Z,16.45
2022-10-01T18:47:32.493Z,16.62
2022-10-01T19:00:09.222Z,16.45
2022-10-01T19:03:21.938Z,16.42
2022-10-01T19:06:09.194Z,16.57
2022-10-01T19:08:40.686Z,16.61
2022-10-01T19:11:25.046Z,16.64
2022-10-01T19:14:30.946Z,16.64
2022-10-01T19:17:17.420Z,16.68
2022-10-01T19:20:26.648Z,16.67
2022-10-01T19:23:16.351Z,16.62
2022-10-01T19:25:58.950Z,16.69
2022-10-01T19:28:46.644Z,16.62
2022-10-01T19:31:36.843Z,16.71
2022-10-01T19:34:13.424Z,16.68
2022-10-01T19:36:47.443Z,16.62
2022-10-01T19:39:23.523Z,16.62
2022-10-01T19:42:17.765Z,16.60
2022-10-01T19:44:54.695Z,16.67
2022-10-01T19:47:34.307Z,16.68
2022-10-01T19:50:15.729Z,16.83
2022-10-01T19:52:48.420Z,16.72
2022-10-01T19:55:23.649Z,16.71
2022-10-01T19:57:53.110Z,16.63
2022-10-01T20:00:24.242Z,16.80
2022-10-01T20:03:27.159Z,16.84
2022-10-01T20:06:04.149Z,16.88
2022-10-01T20:08:42.160Z,16.82
2022-10-01T20:11:24.203Z,16.87
2022-10-01T20:14:10.594Z,16.88
2022-10-01T20:16:47.558Z,16.82
2022-10-01T20:19:53.789Z,16.93
2022-10-01T20:22:30.483Z,16.83
2022-10-01T20:25:04.225Z,16.80
2022-10-01T20:28:03.377Z,16.77
2022-10-01T20:30:38.166Z,16.82
2022-10-01T20:33:20.323Z,16.90
2022-10-01T20:36:11.922Z,16.86
2022-10-01T20:39:05.800Z,16.78
2022-10-01T20:41:56.473Z,16.91
2022-10-01T20:44:39.520Z,16.84
2022-10-01T20:47:21.428Z,16.93
2022-10-01T20:50:12.480Z,16.96
2022-10-01T20:53:09.227Z,16.96
2022-10-01T20:55:46.366Z,17.01
2022-10-01T20:58:19.479Z,17.03
2022-10-01T21:00:49.660Z,17.12
2022-10-01T21:03:23.578Z,17.12
2022-10-01T21:06:30.926Z,17.08
2022-10-01T21:09:03.457Z,17.13
2022-10-01T21:11:31.108Z,17.14
2022-10-01T21:14:20.991Z,17.21
2022-10-01T21:17:13.708Z,17.11
2022-10-01T21:20:12.793Z,17.06
2022-10-01T21:22:49.773Z,17.04
2022-10-01T21:25:35.027Z,17.15
2022-10-01T21:28:56.989Z,17.08
2022-10-01T21:31:34.549Z,17.07
2022-10-01T21:34:03.616Z,17.13
2022-10-01T21:36:38.710Z,17.05
2022-10-01T21:39:24.054Z,17.11
2022-10-01T21:42:06.703Z,17.02
2022-10-01T21:44:52.595Z,17.08
2022-10-01T21:47:23.466Z,17.06
2022-10-01T21:50:26.825Z,16.98
2022-10-01T21:53:13.051Z,16.92
2022-10-01T21:55:59.431Z,16.84
2022-10-01T21:59:07.170Z,16.80
2022-10-01T22:01:56.977Z,16.78
2022-10-01T22:04:40.371Z,16.83
2022-10-01T22:07:54.237Z,16.77
2022-10-01T22:10:46.127Z,16.61
2022-10-01T22:13:28.012Z,16.53
2022-10-01T22:16:14.009Z,16.60
2022-10-01T22:19:10.254Z,16.55
2022-10-01T22:21:46.284Z,16.62
2022-10-01T22:24:19.448Z,16.58
2022-10-01T22:26:57.994Z,16.48
2022-10-01T22:29:30.004Z,16.44
2022-10-01T22:32:02.909Z,16.42
2022-10-01T22:34:49.447Z,16.32
2022-10-01T22:37:22.806Z,16.32
2022-10-01T22:40:20.140Z,16.41
2022-10-01T22:43:11.799Z,16.47
2022-10-01T22:45:54.638Z,16.40
2022-10-01T22:48:44.140Z,16.47
2022-10-01T22:51:17.988Z,16.37
2022-10-01T22:54:14.165Z,16.30
2022-10-01T22:56:57.502Z,16.25
2022-10-01T22:59:52.087Z,16.25
2022-10-01T23:02:35.900Z,16.15
2022-10-01T23:05:33.357Z,16.16
2022-10-01T23:08:33.980Z,16.15
2022-10-01T23:11:43.820Z,16.22
2022-10-01T23:14:39.698Z,15.93
2022-10-01T23:17:13.527Z,15.98
2022-10-01T23:20:04.571Z,15.86
2022-10-01T23:23:01.591Z,15.82
2022-10-01T23:26:10.274Z,15.82
2022-10-01T23:28:49.186Z,15.85
2022-10-01T23:31:31.470Z,15.87
2022-10-01T23:34:26.175Z,15.89
2022-10-01T23:37:03.455Z,16.02
2022-10-01T23:39:44.428Z,16.05
2022-10-01T23:42:52.287Z,16.09
2022-10-01T23:45:37.186Z,16.03
2022-10-01T23:48:12.161Z,16.04
2022-10-01T23:50:51.167Z,16.07
2022-10-01T23:53:23.956Z,16.01
2022-10-01T23:56:23.508Z,15.87
2022-10-01T23:59:03.396Z,15.98
